Time;durP1;ratioP1;P1;durP2;ratioP2;P2;SDS_P1;SDS_P2;PMS_P1;PMS_P2;Temp;Humidity;BMP_temperature;BMP_pressure;BME280_temperature;BME280_humidity;BME280_pressure;Samples;Min_cycle;Max_cycle;Signal;HPM_P1;HPM_P2
2023/09/10 00:00:35;;;;;;;13.73;12.43;;;17.60;91.90;;;17.42;85.09;98100.81;5042337;28;20437;-75
2023/09/10 00:03:02;;;;;;;14.20;12.80;;;17.50;92.00;;;17.36;85.11;98112.75;5049746;28;20457;-76
2023/09/10 00:05:32;;;;;;;11.97;10.87;;;17.50;92.00;;;17.19;85.78;98100.00;5033134;28;20461;-76
2023/09/10 00:08:00;;;;;;;12.60;11.50;;;17.40;92.20;;;17.15;86.40;98118.00;5046397;28;20543;-77
2023/09/10 00:10:28;;;;;;;13.80;12.47;;;17.30;92.40;;;16.96;86.56;98088.28;5044544;28;20473;-80
2023/09/10 00:12:55;;;;;;;14.20;12.70;;;17.20;92.50;;;16.93;87.07;98093.41;5044772;28;20444;-78
2023/09/10 00:15:23;;;;;;;13.87;12.57;;;17.20;92.90;;;17.01;86.96;98116.75;5044100;28;20457;-77
2023/09/10 00:17:52;;;;;;;13.83;11.57;;;17.10;93.10;;;16.94;87.30;98123.19;5039578;28;20455;-79
2023/09/10 00:20:19;;;;;;;13.50;12.20;;;17.10;93.10;;;16.93;87.22;98127.00;5026324;28;20475;-82
2023/09/10 00:22:47;;;;;;;15.17;13.67;;;17.00;93.30;;;16.88;87.78;98123.38;5041793;28;20448;-76
2023/09/10 00:25:14;;;;;;;14.43;12.93;;;17.00;93.30;;;16.80;88.09;98127.38;5047917;28;20468;-76
2023/09/10 00:27:41;;;;;;;14.20;12.83;;;16.90;93.40;;;16.76;88.40;98128.97;5041301;28;20457;-80
2023/09/10 00:30:11;;;;;;;14.00;12.70;;;16.90;93.50;;;16.68;88.45;98120.13;5048274;28;20461;-77
2023/09/10 00:32:39;;;;;;;14.70;13.20;;;16.90;93.60;;;16.76;89.27;98120.78;5038386;28;20507;-76
2023/09/10 00:35:08;;;;;;;13.53;12.43;;;16.90;94.00;;;16.73;90.34;98104.91;5045000;28;20464;-74
2023/09/10 00:37:35;;;;;;;13.93;12.63;;;16.90;94.70;;;16.75;90.20;98119.13;5034870;28;20469;-78
2023/09/10 00:40:04;;;;;;;14.77;12.57;;;16.80;94.90;;;16.72;89.13;98109.56;5019058;28;20506;-77
2023/09/10 00:42:31;;;;;;;14.17;12.37;;;16.90;94.50;;;16.87;88.88;98122.53;5039618;28;20937;-82
2023/09/10 00:45:00;;;;;;;14.17;12.73;;;16.80;94.40;;;16.76;88.74;98115.34;5036815;28;20460;-76
2023/09/10 00:47:28;;;;;;;13.67;12.37;;;16.80;94.20;;;16.69;88.69;98116.34;5046270;28;20468;-81
2023/09/10 00:49:57;;;;;;;13.27;12.17;;;16.80;94.20;;;16.66;89.57;98116.84;5049050;28;20524;-79
2023/09/10 00:52:25;;;;;;;13.97;12.77;;;16.80;94.60;;;16.56;90.20;98111.25;5044762;28;20482;-75
2023/09/10 00:54:53;;;;;;;12.67;11.57;;;16.70;94.30;;;16.61;90.12;98113.22;5061320;28;20482;-76
2023/09/10 00:57:20;;;;;;;14.27;12.87;;;16.80;94.40;;;16.63;89.95;98111.91;5068880;28;20458;-79
2023/09/10 00:59:48;;;;;;;15.80;14.30;;;16.70;94.60;;;16.50;89.44;98104.91;5072536;28;20452;-76
2023/09/10 01:02:15;;;;;;;14.30;12.77;;;16.80;94.10;;;16.56;89.36;98111.25;5051510;28;20444;-78
2023/09/10 01:04:43;;;;;;;14.90;13.50;;;16.70;94.10;;;16.42;90.36;98117.06;5052364;28;20473;-76
2023/09/10 01:07:12;;;;;;;14.83;13.27;;;16.70;94.10;;;16.31;91.14;98115.28;5052443;28;20447;-77
2023/09/10 01:09:39;;;;;;;14.00;12.70;;;16.60;94.40;;;16.35;91.39;98119.16;5049157;28;20469;-76
2023/09/10 01:12:16;;;;;;;13.10;12.00;;;16.60;94.80;;;16.28;91.75;98121.22;5047801;28;20470;-77
2023/09/10 01:14:51;;;;;;;17.57;13.00;;;16.50;94.70;;;16.26;91.83;98116.03;5043006;28;20462;-78
2023/09/10 01:17:32;;;;;;;15.43;13.80;;;16.40;95.40;;;16.13;92.44;98117.19;5047503;28;20496;-79
2023/09/10 01:20:20;;;;;;;14.30;12.90;;;16.40;95.50;;;16.21;92.24;98115.13;5043050;28;20538;-78
2023/09/10 01:23:03;;;;;;;14.27;12.87;;;16.40;95.40;;;15.86;92.79;98077.00;5035541;28;20491;-78
2023/09/10 01:25:33;;;;;;;15.20;13.70;;;16.40;95.50;;;16.06;92.98;98124.72;5045239;28;20452;-78
2023/09/10 01:28:03;;;;;;;14.90;13.50;;;16.40;95.70;;;16.07;93.38;98117.34;5039142;28;20455;-80
2023/09/10 01:30:31;;;;;;;14.93;13.53;;;16.30;95.80;;;15.97;93.44;98101.69;5043862;28;20458;-75
2023/09/10 01:33:11;;;;;;;14.87;13.40;;;16.30;95.90;;;16.06;93.47;98123.88;5044877;28;20455;-77
2023/09/10 01:35:48;;;;;;;14.07;12.83;;;16.30;95.90;;;15.94;93.60;98100.28;5046657;28;20451;-76
2023/09/10 01:38:23;;;;;;;14.40;13.10;;;16.30;96.00;;;16.02;93.92;98115.41;5044496;28;20523;-81
2023/09/10 01:40:58;;;;;;;15.17;13.77;;;16.30;96.20;;;16.02;93.35;98109.94;5045491;28;20488;-78
2023/09/10 01:43:26;;;;;;;15.73;13.97;;;16.30;96.10;;;15.99;93.49;98108.53;5034719;28;21470;-78
2023/09/10 01:45:53;;;;;;;13.83;12.43;;;16.30;95.90;;;16.05;93.56;98120.34;5040767;28;20464;-76
2023/09/10 01:48:20;;;;;;;14.80;13.50;;;16.20;96.10;;;15.99;93.67;98107.69;5044517;28;20595;-79
2023/09/10 01:50:48;;;;;;;15.63;13.10;;;16.20;96.30;;;15.96;93.93;98113.66;5042919;28;20888;-81
2023/09/10 01:53:16;;;;;;;14.30;12.90;;;16.20;96.40;;;15.51;93.87;98039.91;5044288;28;20460;-80
2023/09/10 01:55:44;;;;;;;14.50;13.10;;;16.20;96.50;;;15.94;94.40;98115.81;5061853;28;20943;-76
2023/09/10 01:58:14;;;;;;;14.97;13.57;;;16.10;96.50;;;15.83;94.29;98121.03;5045673;28;20470;-76
2023/09/10 02:00:42;;;;;;;14.90;12.43;;;16.10;96.60;;;15.80;94.68;98107.94;5043695;28;20449;-80
2023/09/10 02:03:09;;;;;;;14.53;13.13;;;16.10;96.70;;;15.93;94.12;98122.31;5047048;28;20457;-83
2023/09/10 02:05:36;;;;;;;15.90;13.33;;;16.10;96.40;;;15.93;94.07;98119.59;5044212;28;20452;-76
2023/09/10 02:08:05;;;;;;;15.57;13.30;;;16.10;96.50;;;15.89;94.02;98123.88;5047574;28;20502;-77
2023/09/10 02:10:33;;;;;;;15.27;13.23;;;16.10;96.50;;;15.75;94.00;98107.84;5045170;28;20548;-76
2023/09/10 02:13:02;;;;;;;14.30;13.00;;;16.10;96.60;;;15.85;94.37;98129.81;5046068;28;20460;-75
2023/09/10 02:15:31;;;;;;;14.37;12.90;;;16.00;96.60;;;15.81;94.52;98127.84;5042630;28;20465;-76
2023/09/10 02:17:58;;;;;;;14.40;12.90;;;16.00;96.70;;;15.60;95.10;98126.66;5045326;28;20463;-76
2023/09/10 02:20:26;;;;;;;14.03;12.73;;;15.90;97.20;;;15.14;95.75;98062.16;5043769;28;20455;-77
2023/09/10 02:22:53;;;;;;;15.27;13.80;;;15.80;97.50;;;15.28;96.30;98104.34;5046329;28;20456;-80
2023/09/10 02:25:20;;;;;;;14.53;12.93;;;15.70;98.20;;;15.43;97.27;98133.72;5048165;28;20445;-78
2023/09/10 02:27:47;;;;;;;15.07;13.30;;;15.60;99.00;;;15.42;97.06;98126.63;5043135;28;20529;-83
2023/09/10 02:30:14;;;;;;;15.50;13.80;;;15.60;99.70;;;15.62;96.27;98132.69;5045424;28;20534;-80
2023/09/10 02:32:43;;;;;;;15.00;13.60;;;15.70;99.30;;;15.63;95.89;98131.59;5042032;28;21318;-81
2023/09/10 02:35:11;;;;;;;13.90;12.70;;;15.70;98.40;;;15.53;95.92;98135.78;5041578;28;20451;-79
2023/09/10 02:37:38;;;;;;;14.13;12.73;;;15.80;98.30;;;15.60;96.47;98132.09;5044541;28;21275;-80
2023/09/10 02:40:09;;;;;;;15.83;14.23;;;15.80;98.40;;;15.57;96.97;98134.25;5046542;28;20454;-77
2023/09/10 02:42:36;;;;;;;15.90;14.10;;;15.80;98.40;;;15.42;96.37;98099.41;5042584;28;20459;-79
2023/09/10 02:45:04;;;;;;;14.23;12.83;;;15.80;98.40;;;15.63;96.27;98126.16;5041127;28;20451;-78
2023/09/10 02:47:31;;;;;;;14.73;13.23;;;15.80;98.20;;;15.72;96.66;98125.50;5062681;28;20446;-83
2023/09/10 02:50:00;;;;;;;15.37;13.97;;;15.90;98.80;;;15.74;96.70;98133.44;5059348;28;20554;-85
2023/09/10 02:52:30;;;;;;;15.53;14.03;;;15.90;98.90;;;16.02;94.93;98133.63;5070212;28;20467;-81
2023/09/10 02:54:58;;;;;;;14.77;13.37;;;16.10;98.10;;;16.06;94.40;98123.88;5063835;28;20446;-77
2023/09/10 02:57:25;;;;;;;15.17;13.67;;;16.20;97.80;;;16.02;93.81;98134.47;5042779;28;20455;-79
2023/09/10 02:59:52;;;;;;;15.03;13.40;;;16.10;97.10;;;16.16;93.03;98125.97;5050871;28;20992;-76
2023/09/10 03:02:19;;;;;;;14.73;13.23;;;16.20;97.10;;;16.05;92.63;98128.53;5046443;28;20452;-77
2023/09/10 03:04:46;;;;;;;13.97;12.53;;;16.20;95.90;;;16.02;92.73;98123.56;5049870;28;20454;-79
2023/09/10 03:07:15;;;;;;;13.10;11.90;;;16.20;95.70;;;16.02;93.09;98126.31;5044375;28;20459;-77
2023/09/10 03:09:42;;;;;;;13.47;12.10;;;16.20;95.80;;;15.98;93.79;98134.13;5048822;28;20455;-79
2023/09/10 03:12:28;;;;;;;13.60;12.33;;;16.10;96.20;;;16.10;92.83;98128.59;5041777;28;20488;-80
2023/09/10 03:14:56;;;;;;;14.90;12.20;;;16.20;96.20;;;16.02;92.34;98129.03;5047422;28;20443;-78
2023/09/10 03:17:24;;;;;;;13.30;12.10;;;16.20;95.50;;;15.99;92.20;98124.88;5040376;28;20522;-80
2023/09/10 03:19:51;;;;;;;13.63;12.43;;;16.10;95.30;;;15.99;92.45;98126.78;5048249;28;20467;-77
2023/09/10 03:22:20;;;;;;;13.23;11.90;;;16.10;95.70;;;15.83;92.69;98120.25;5040594;28;20467;-78
2023/09/10 03:24:47;;;;;;;14.13;12.93;;;16.00;95.70;;;16.13;94.05;98125.38;5045788;28;20486;-79
2023/09/10 03:27:14;;;;;;;13.47;12.27;;;16.00;97.80;;;15.98;92.17;98125.13;5047618;28;20462;-76
2023/09/10 03:29:43;;;;;;;13.73;12.47;;;16.10;95.70;;;15.80;93.12;98102.47;5047848;28;20471;-77
2023/09/10 03:32:10;;;;;;;14.43;13.13;;;16.00;96.00;;;15.44;93.61;98064.59;5061055;28;20475;-79
2023/09/10 03:34:38;;;;;;;13.17;11.77;;;16.00;96.20;;;16.02;94.08;98123.56;5045760;28;20465;-76
2023/09/10 03:37:06;;;;;;;14.00;12.50;;;16.00;97.20;;;15.97;93.80;98116.13;5038234;28;20503;-76
2023/09/10 03:39:34;;;;;;;13.50;11.87;;;16.10;97.10;;;16.25;91.50;98122.56;5046516;28;20651;-76
2023/09/10 03:42:02;;;;;;;12.97;11.87;;;16.30;96.30;;;16.54;90.51;98113.41;5035979;28;20498;-78
2023/09/10 03:44:29;;;;;;;13.20;12.07;;;16.40;95.70;;;17.09;85.96;98108.13;5042996;28;20463;-79
2023/09/10 03:46:57;;;;;;;13.40;12.17;;;16.90;93.70;;;17.17;84.46;98120.47;5041819;28;20458;-78
2023/09/10 03:49:24;;;;;;;14.30;11.70;;;17.10;92.30;;;17.30;83.79;98116.50;5045924;28;20480;-77
2023/09/10 03:51:53;;;;;;;12.70;11.53;;;17.30;92.20;;;17.48;82.97;98116.16;5045704;28;20752;-74
2023/09/10 03:54:20;;;;;;;12.07;10.97;;;17.40;92.10;;;17.31;83.27;98115.44;5045507;28;20461;-76
2023/09/10 03:56:49;;;;;;;12.30;11.00;;;17.20;91.90;;;17.33;83.01;98118.72;5042537;28;20458;-76
2023/09/10 03:59:18;;;;;;;13.07;11.77;;;17.30;91.90;;;17.23;83.62;98113.97;5046923;28;20945;-76
2023/09/10 04:01:45;;;;;;;13.37;11.97;;;17.20;91.90;;;17.25;82.53;98112.66;5042706;28;20443;-77
2023/09/10 04:04:12;;;;;;;11.70;10.60;;;17.30;91.50;;;17.08;82.44;98112.72;5040316;28;20504;-77
2023/09/10 04:06:39;;;;;;;13.43;12.30;;;17.30;91.50;;;17.20;82.69;98109.84;5048216;28;20526;-78
2023/09/10 04:09:07;;;;;;;12.10;11.00;;;17.30;91.50;;;17.11;83.59;98114.94;5041434;28;20461;-76
2023/09/10 04:11:34;;;;;;;12.80;11.70;;;17.20;91.60;;;17.01;83.73;98106.66;5044686;28;20500;-81
2023/09/10 04:14:03;;;;;;;12.60;11.40;;;17.10;91.60;;;17.09;82.58;98113.56;5043707;28;20476;-78
2023/09/10 04:16:31;;;;;;;11.70;10.70;;;17.20;91.30;;;17.48;82.08;98116.16;5044297;28;20475;-76
2023/09/10 04:18:58;;;;;;;12.20;10.70;;;17.30;91.60;;;17.83;79.27;98117.56;5045983;28;21129;-77
2023/09/10 04:21:25;;;;;;;12.70;11.60;;;17.70;91.00;;;17.96;78.85;98110.00;5050731;28;20537;-78
2023/09/10 04:23:52;;;;;;;12.97;11.63;;;17.80;90.70;;;17.87;78.52;98117.84;5048676;28;20469;-80
2023/09/10 04:26:19;;;;;;;12.37;11.30;;;17.90;90.40;;;17.43;78.82;98036.91;5049906;28;20525;-76
2023/09/10 04:28:46;;;;;;;13.03;11.83;;;17.90;90.40;;;17.61;79.10;98119.53;5051045;28;20489;-78
2023/09/10 04:31:17;;;;;;;14.60;11.07;;;17.80;90.20;;;17.94;78.74;98120.38;5047824;28;20459;-77
2023/09/10 04:33:45;;;;;;;12.77;11.57;;;17.80;90.40;;;17.80;78.46;98129.00;5045424;28;20455;-77
2023/09/10 04:36:13;;;;;;;12.20;11.10;;;17.80;90.30;;;17.69;78.79;98127.28;5046437;28;20456;-76
2023/09/10 04:38:41;;;;;;;12.03;10.93;;;17.70;90.30;;;17.38;80.51;98113.34;5041947;28;20856;-78
2023/09/10 04:41:08;;;;;;;13.53;12.33;;;17.40;90.50;;;17.02;81.83;98135.59;5047336;28;20925;-75
2023/09/10 04:43:36;;;;;;;16.23;12.50;;;17.20;90.60;;;16.88;82.17;98139.75;5049880;28;20459;-77
2023/09/10 04:46:03;;;;;;;14.30;13.00;;;17.00;90.70;;;16.50;83.24;98117.72;5047545;28;21082;-75
2023/09/10 04:48:32;;;;;;;12.27;10.93;;;16.80;90.90;;;16.40;84.33;98123.88;5059423;28;20472;-80
2023/09/10 04:50:59;;;;;;;13.80;12.10;;;16.70;91.50;;;16.26;85.28;98137.00;5065701;28;20463;-79
2023/09/10 04:53:26;;;;;;;13.50;12.07;;;16.50;91.70;;;16.21;85.84;98153.28;5069266;28;20934;-79
2023/09/10 04:55:54;;;;;;;15.53;12.90;;;16.30;92.10;;;15.94;87.53;98165.69;5055464;28;20497;-76
2023/09/10 04:58:21;;;;;;;15.00;12.93;;;16.10;92.50;;;15.83;88.74;98167.34;5049914;28;20470;-76
2023/09/10 05:00:50;;;;;;;13.67;12.47;;;16.00;93.10;;;15.84;89.07;98171.72;5044876;28;20447;-77
2023/09/10 05:03:17;;;;;;;13.10;11.80;;;16.00;93.50;;;15.82;89.37;98167.63;5047386;28;20794;-76
2023/09/10 05:05:46;;;;;;;13.67;12.40;;;15.90;93.80;;;15.72;89.55;98152.75;5046379;28;20458;-74
2023/09/10 05:08:14;;;;;;;14.40;13.00;;;16.00;93.90;;;15.81;89.59;98150.44;5042637;28;21305;-75
2023/09/10 05:10:41;;;;;;;14.97;13.57;;;16.10;94.00;;;16.03;88.40;98178.88;5047213;28;20502;-76
2023/09/10 05:13:08;;;;;;;14.33;13.03;;;16.20;93.20;;;16.16;87.56;98175.03;5044924;28;20482;-75
2023/09/10 05:15:35;;;;;;;14.53;13.00;;;16.40;92.90;;;16.21;87.56;98175.09;5041617;28;20953;-76
2023/09/10 05:18:04;;;;;;;15.40;14.00;;;16.50;92.60;;;16.22;86.49;98177.56;5046311;28;20463;-76
2023/09/10 05:20:32;;;;;;;14.30;13.03;;;16.80;92.00;;;16.37;86.18;98185.16;5048749;28;20476;-81
2023/09/10 05:23:01;;;;;;;13.00;11.80;;;16.80;91.70;;;16.29;86.40;98180.94;5048593;28;20450;-76
2023/09/10 05:25:28;;;;;;;13.67;12.47;;;16.80;91.60;;;16.19;87.17;98188.16;5047602;28;20975;-78
2023/09/10 05:27:57;;;;;;;14.47;13.20;;;16.60;91.80;;;16.08;88.13;98190.69;5044098;28;20452;-77
2023/09/10 05:30:24;;;;;;;14.87;13.47;;;16.40;92.30;;;15.96;89.00;98189.94;5045309;28;20982;-76
2023/09/10 05:32:51;;;;;;;14.00;12.80;;;16.30;92.70;;;15.87;89.87;98186.78;5045735;28;20488;-76
2023/09/10 05:35:19;;;;;;;13.90;12.50;;;16.20;93.10;;;15.62;90.52;98168.91;5040136;28;20986;-77
2023/09/10 05:37:46;;;;;;;14.73;13.33;;;16.10;93.50;;;15.66;91.01;98175.53;5047559;28;20452;-77
2023/09/10 05:40:15;;;;;;;16.43;14.63;;;16.00;93.70;;;15.63;91.54;98191.53;5048541;28;20541;-77
2023/09/10 05:42:42;;;;;;;14.80;12.93;;;16.00;94.20;;;15.75;90.79;98184.13;5045825;28;20508;-76
2023/09/10 05:45:10;;;;;;;14.47;13.07;;;16.00;94.40;;;15.71;91.48;98182.97;5041380;28;20869;-76
2023/09/10 05:47:37;;;;;;;15.53;14.03;;;15.90;94.20;;;15.72;90.25;98169.09;5033266;28;20520;-77
2023/09/10 05:50:06;;;;;;;14.20;12.80;;;16.10;94.10;;;15.79;91.07;98185.28;5043449;28;20454;-77
2023/09/10 05:52:33;;;;;;;17.27;15.37;;;16.00;94.10;;;15.95;89.95;98186.41;5044792;28;20969;-76
2023/09/10 05:55:00;;;;;;;14.80;13.27;;;16.20;94.10;;;16.09;89.04;98186.91;5043423;28;21269;-78
2023/09/10 05:57:29;;;;;;;15.30;13.90;;;16.30;93.60;;;16.16;89.03;98188.66;5041316;28;20457;-79
2023/09/10 05:59:56;;;;;;;15.13;13.73;;;16.30;93.50;;;16.24;88.21;98180.88;5048124;28;20451;-76
2023/09/10 06:02:24;;;;;;;14.93;13.53;;;16.50;93.20;;;16.40;87.80;98184.66;5038851;28;20485;-74
2023/09/10 06:04:51;;;;;;;15.10;13.73;;;16.60;93.10;;;16.37;86.93;98157.91;5042058;28;20523;-76
2023/09/10 06:07:18;;;;;;;18.23;15.13;;;16.70;92.80;;;16.60;86.12;98177.84;5048222;28;20467;-78
2023/09/10 06:09:45;;;;;;;16.47;14.77;;;16.80;92.50;;;16.59;86.37;98186.28;5053331;28;20440;-77
2023/09/10 06:12:13;;;;;;;17.10;15.50;;;16.80;92.30;;;16.57;86.60;98192.81;5041202;28;20803;-78
2023/09/10 06:14:42;;;;;;;15.00;13.60;;;16.90;92.20;;;16.52;86.83;98176.38;5039516;28;21081;-78
2023/09/10 06:17:09;;;;;;;16.07;14.57;;;16.90;92.30;;;16.66;86.54;98187.75;5038586;28;20928;-76
2023/09/10 06:19:36;;;;;;;15.60;14.13;;;16.90;92.20;;;16.54;86.22;98165.22;5058363;28;20448;-79
2023/09/10 06:22:04;;;;;;;15.27;13.97;;;17.00;92.20;;;16.73;86.76;98186.75;5044505;28;20466;-79
2023/09/10 06:24:32;;;;;;;16.10;14.33;;;17.00;92.40;;;16.86;86.40;98191.84;5042308;28;21491;-81
2023/09/10 06:27:00;;;;;;;17.30;15.50;;;17.10;92.30;;;16.89;85.59;98163.25;5043672;28;20547;-79
2023/09/10 06:29:28;;;;;;;14.80;13.30;;;17.20;92.20;;;17.02;84.98;98175.69;5043177;28;20889;-78
2023/09/10 06:31:57;;;;;;;14.93;13.43;;;17.30;91.90;;;17.02;85.54;98181.16;5040646;28;20458;-80
2023/09/10 06:34:24;;;;;;;14.53;13.30;;;17.30;91.80;;;17.26;84.86;98185.28;5036510;28;20484;-80
2023/09/10 06:36:52;;;;;;;16.70;15.20;;;17.40;91.90;;;17.42;83.57;98188.19;5034861;28;20495;-82
2023/09/10 06:39:19;;;;;;;16.80;15.10;;;17.60;91.60;;;17.49;82.65;98183.34;5044514;28;21256;-81
2023/09/10 06:41:47;;;;;;;16.67;14.97;;;17.70;91.20;;;17.65;82.13;98189.81;5043694;28;20909;-80
2023/09/10 06:44:14;;;;;;;14.63;13.43;;;17.80;91.10;;;17.70;81.63;98176.19;5034991;28;20456;-78
2023/09/10 06:46:42;;;;;;;15.40;14.00;;;17.90;91.00;;;17.54;80.82;98147.91;5069251;28;20444;-83
2023/09/10 06:49:10;;;;;;;16.40;14.73;;;18.10;90.70;;;17.99;80.43;98188.75;5066668;28;20475;-81
2023/09/10 06:51:38;;;;;;;16.50;15.00;;;18.20;90.70;;;18.13;79.25;98189.16;5062195;28;20461;-81
2023/09/10 06:54:05;;;;;;;14.90;13.40;;;18.30;90.60;;;18.59;77.27;98194.16;5052473;28;20476;-79
2023/09/10 06:56:32;;;;;;;17.60;14.50;;;18.60;90.20;;;18.67;76.91;98199.13;5046395;28;20865;-82
2023/09/10 06:59:00;;;;;;;16.13;14.70;;;18.70;90.10;;;18.74;76.74;98193.41;5040407;28;20450;-80
2023/09/10 07:01:27;;;;;;;17.17;15.47;;;18.80;90.00;;;18.85;76.26;98199.75;5028852;28;20845;-80
2023/09/10 07:03:57;;;;;;;15.13;13.63;;;18.90;89.80;;;18.60;75.24;98123.84;5041867;28;20775;-80
2023/09/10 07:06:26;;;;;;;16.63;15.13;;;19.10;89.40;;;19.07;75.14;98201.56;5044371;28;20462;-78
2023/09/10 07:08:53;;;;;;;15.33;14.03;;;19.30;89.00;;;19.19;74.52;98188.47;5045358;28;20457;-79
2023/09/10 07:11:20;;;;;;;16.27;14.77;;;19.40;88.90;;;19.22;74.80;98196.16;5044257;28;20517;-83
2023/09/10 07:13:47;;;;;;;16.80;15.00;;;19.50;88.60;;;19.25;74.67;98192.88;5036623;28;20478;-78
2023/09/10 07:16:15;;;;;;;15.20;13.83;;;19.50;88.50;;;19.67;73.15;98195.75;5044400;28;20886;-80
2023/09/10 07:18:42;;;;;;;15.87;14.47;;;19.70;88.40;;;19.77;72.75;98192.19;5049328;28;20452;-80
2023/09/10 07:21:09;;;;;;;17.47;15.87;;;19.80;88.00;;;19.91;72.93;98195.22;5044310;28;20467;-79
2023/09/10 07:23:38;;;;;;;17.17;15.67;;;20.00;88.10;;;19.99;72.78;98197.47;5035394;28;20460;-79
2023/09/10 07:26:05;;;;;;;18.03;16.33;;;20.10;88.00;;;20.04;72.41;98200.19;5045255;28;20936;-79
2023/09/10 07:28:32;;;;;;;19.87;16.50;;;20.20;87.80;;;20.32;70.78;98200.75;5043400;28;20450;-79
2023/09/10 07:30:59;;;;;;;18.20;16.60;;;20.40;87.40;;;20.29;71.04;98193.06;5047030;28;22056;-77
2023/09/10 07:33:26;;;;;;;18.00;16.40;;;20.40;86.90;;;20.20;71.34;98192.81;5044882;28;20479;-81
2023/09/10 07:35:54;;;;;;;18.83;16.97;;;20.40;86.90;;;20.50;70.39;98190.31;5042752;28;20454;-84
2023/09/10 07:38:21;;;;;;;18.57;16.53;;;20.60;86.80;;;20.69;69.27;98176.00;5039859;28;20460;-78
2023/09/10 07:40:49;;;;;;;19.77;17.73;;;20.80;86.50;;;20.89;68.63;98184.22;5040853;28;20462;-83
2023/09/10 07:43:17;;;;;;;16.23;14.67;;;20.90;86.20;;;20.86;68.74;98176.53;5042766;28;20453;-80
2023/09/10 07:45:46;;;;;;;17.70;16.10;;;21.00;86.10;;;20.91;68.71;98178.44;5039318;28;20443;-79
2023/09/10 07:48:14;;;;;;;18.50;16.70;;;21.10;86.00;;;20.80;69.21;98183.09;5042708;28;20453;-76
2023/09/10 07:50:42;;;;;;;17.43;15.83;;;21.10;85.90;;;21.03;68.71;98183.63;5046497;28;20985;-84
2023/09/10 07:53:09;;;;;;;15.83;14.33;;;21.10;85.80;;;21.27;67.87;98181.06;5048144;28;20962;-85
2023/09/10 07:55:38;;;;;;;16.80;15.20;;;21.30;85.70;;;21.26;68.41;98184.91;5042546;28;20473;-83
2023/09/10 07:58:07;;;;;;;16.97;15.47;;;21.40;85.70;;;21.32;68.73;98188.44;5040926;28;20498;-83
2023/09/10 08:00:36;;;;;;;16.17;14.67;;;21.40;85.80;;;21.22;68.22;98139.84;5038271;28;20550;-81
2023/09/10 08:03:06;;;;;;;16.03;14.53;;;21.50;85.90;;;21.70;67.53;98182.50;5042156;28;20478;-79
2023/09/10 08:05:34;;;;;;;16.33;14.83;;;21.70;85.60;;;21.86;67.02;98186.78;5035355;28;20461;-76
2023/09/10 08:08:02;;;;;;;17.80;16.03;;;21.90;85.40;;;21.39;66.64;98142.25;5042674;28;20554;-79
2023/09/10 08:10:30;;;;;;;17.20;15.70;;;21.90;85.20;;;21.97;65.58;98197.69;5039653;28;20464;-75
2023/09/10 08:12:58;;;;;;;18.40;16.60;;;21.90;84.60;;;22.17;64.68;98185.72;5037270;28;20509;-82
2023/09/10 08:15:26;;;;;;;18.03;16.43;;;22.10;84.20;;;22.04;64.37;98144.00;5042615;28;20447;-84
2023/09/10 08:17:58;;;;;;;18.13;16.43;;;22.30;84.00;;;22.18;64.65;98181.84;5036663;28;20488;-82
2023/09/10 08:20:27;;;;;;;15.67;14.27;;;22.40;83.70;;;22.36;64.83;98200.41;5059371;28;20455;-86
2023/09/10 08:22:55;;;;;;;18.23;16.63;;;22.40;83.80;;;22.43;64.43;98194.56;5047038;28;20565;-78
2023/09/10 08:25:23;;;;;;;19.27;17.20;;;22.50;83.70;;;22.29;65.13;98199.94;5035501;28;20452;-75
2023/09/10 08:27:50;;;;;;;18.40;16.80;;;22.50;83.60;;;22.17;64.64;98158.22;5018715;28;20464;-78
2023/09/10 08:30:18;;;;;;;17.40;15.60;;;22.50;83.50;;;22.70;63.48;98197.94;5041495;28;20445;-78
2023/09/10 08:32:47;;;;;;;19.97;18.27;;;22.70;83.40;;;22.82;62.44;98183.75;5036877;28;20881;-84
2023/09/10 08:35:15;;;;;;;18.07;16.47;;;22.90;82.70;;;22.81;62.40;98199.44;5039471;28;20526;-81
2023/09/10 08:37:42;;;;;;;19.93;18.13;;;23.00;82.40;;;23.10;62.08;98201.34;5036226;28;20472;-81
2023/09/10 08:40:10;;;;;;;17.17;15.50;;;23.10;82.50;;;23.46;60.57;98208.38;5049838;28;20464;-83
2023/09/10 08:42:46;;;;;;;17.27;15.60;;;23.40;81.70;;;23.89;60.06;98211.06;5064939;28;20426;-81
2023/09/10 08:45:14;;;;;;;16.03;14.60;;;23.70;81.70;;;24.37;58.90;98202.91;5065839;28;20451;-82
2023/09/10 08:47:43;;;;;;;18.77;17.07;;;24.20;81.30;;;24.45;57.50;98160.78;5044530;28;20450;-79
2023/09/10 08:50:14;;;;;;;17.77;16.27;;;24.50;80.60;;;24.90;57.22;98204.47;5051593;28;20513;-81
2023/09/10 08:52:43;;;;;;;17.13;15.60;;;24.80;80.10;;;25.51;55.94;98195.25;5047860;28;20772;-79
2023/09/10 08:55:13;;;;;;;15.53;14.17;;;25.20;79.40;;;25.42;55.67;98198.72;5044751;28;20455;-79
2023/09/10 08:57:43;;;;;;;17.17;15.50;;;25.30;78.90;;;24.89;56.96;98189.84;5036418;28;20469;-81
2023/09/10 09:00:13;;;;;;;16.50;15.00;;;25.10;78.90;;;25.01;57.87;98199.56;5046981;28;20528;-79
2023/09/10 09:02:41;;;;;;;18.03;16.20;;;25.00;79.60;;;24.38;59.03;98210.88;5051974;28;20445;-81
2023/09/10 09:05:09;;;;;;;17.47;15.97;;;24.60;79.40;;;24.48;58.79;98204.34;5042025;28;20455;-79
2023/09/10 09:07:45;;;;;;;17.23;15.83;;;24.50;79.50;;;24.81;57.35;98201.63;5047047;28;20443;-79
2023/09/10 09:10:14;;;;;;;18.70;16.93;;;24.70;79.10;;;24.69;57.88;98193.78;5050299;28;20446;-80
2023/09/10 09:12:43;;;;;;;17.53;15.73;;;24.70;79.30;;;24.66;58.76;98201.88;5037719;28;20780;-79
2023/09/10 09:15:12;;;;;;;16.60;15.20;;;24.70;79.40;;;24.68;58.76;98197.66;5048101;28;20880;-79
2023/09/10 09:17:39;;;;;;;17.60;16.00;;;24.70;79.50;;;24.62;58.79;98190.59;5041297;28;20476;-80
2023/09/10 09:20:12;;;;;;;16.80;15.40;;;24.70;79.50;;;24.60;58.70;98192.84;5048405;28;20478;-80
2023/09/10 09:22:46;;;;;;;17.70;16.20;;;24.60;79.30;;;24.42;58.87;98189.84;5043754;28;21011;-79
2023/09/10 09:25:15;;;;;;;17.80;16.17;;;24.50;79.00;;;24.54;59.08;98196.81;5048284;28;20460;-82
2023/09/10 09:27:43;;;;;;;15.43;14.13;;;24.50;79.20;;;24.81;57.80;98190.56;5041205;28;20546;-78
2023/09/10 09:30:12;;;;;;;16.93;15.23;;;24.70;79.00;;;25.07;57.67;98189.22;5055212;28;21183;-78
2023/09/10 09:32:39;;;;;;;17.00;15.50;;;24.90;79.00;;;24.99;57.59;98176.94;5039712;28;20451;-81
2023/09/10 09:35:10;;;;;;;16.00;14.60;;;25.00;78.80;;;25.41;56.01;98186.03;5046683;28;20469;-81
2023/09/10 09:37:38;;;;;;;19.17;17.40;;;25.20;78.10;;;25.21;56.54;98183.69;5043703;28;20459;-80
2023/09/10 09:40:09;;;;;;;16.40;15.00;;;25.20;77.80;;;25.61;55.33;98175.66;5036848;28;21019;-79
2023/09/10 09:42:37;;;;;;;15.30;14.00;;;25.50;77.60;;;25.73;54.32;98178.72;5046020;28;20490;-78
2023/09/10 09:45:05;;;;;;;16.30;14.90;;;25.70;76.80;;;26.19;53.59;98184.31;5048492;28;20454;-79
2023/09/10 09:47:33;;;;;;;16.87;15.37;;;25.90;76.50;;;26.34;53.01;98185.06;5046928;28;20752;-78
2023/09/10 09:50:00;;;;;;;15.70;14.40;;;26.20;75.80;;;26.26;53.76;98184.66;5049595;28;20488;-79
2023/09/10 09:52:28;;;;;;;15.43;14.13;;;26.30;75.80;;;26.62;52.63;98187.66;5045434;28;20475;-79
2023/09/10 09:54:55;;;;;;;17.33;15.67;;;26.50;75.50;;;26.45;52.82;98180.88;5048652;28;20480;-79
2023/09/10 09:57:23;;;;;;;16.60;15.10;;;26.50;74.90;;;26.36;53.32;98185.56;5047041;28;21035;-79
2023/09/10 09:59:51;;;;;;;16.03;14.43;;;26.30;75.20;;;26.58;51.95;98171.66;5034593;28;20521;-77
2023/09/10 10:02:19;;;;;;;15.67;14.13;;;26.50;74.60;;;26.73;52.10;98184.28;5045589;28;20456;-79
2023/09/10 10:04:46;;;;;;;16.43;15.13;;;26.50;74.80;;;26.64;51.82;98183.41;5052582;28;20798;-80
2023/09/10 10:07:14;;;;;;;16.23;14.33;;;26.60;73.90;;;26.51;52.13;98171.31;5049816;28;20454;-82
2023/09/10 10:09:42;;;;;;;16.40;14.90;;;26.50;73.80;;;26.70;51.93;98171.09;5070623;28;20453;-78